createdAt,value
2023-07-26T00:00:42.624Z,87.90
2023-07-26T00:04:06.167Z,87.80
2023-07-26T00:07:28.520Z,87.80
2023-07-26T00:10:50.746Z,87.80
2023-07-26T00:14:14.841Z,87.80
2023-07-26T00:17:37.077Z,87.70
2023-07-26T00:20:59.271Z,87.70
2023-07-26T00:24:21.693Z,87.60
2023-07-26T00:27:43.906Z,88.60
2023-07-26T00:31:06.828Z,88.00
2023-07-26T00:34:29.059Z,87.60
2023-07-26T00:37:51.595Z,87.50
2023-07-26T00:41:14.281Z,87.50
2023-07-26T00:44:36.610Z,87.50
2023-07-26T00:47:59.107Z,87.40
2023-07-26T00:51:23.151Z,87.30
2023-07-26T00:54:45.374Z,87.30
2023-07-26T00:58:08.349Z,87.00
2023-07-26T01:01:30.875Z,87.10
2023-07-26T01:04:53.846Z,87.00
2023-07-26T01:08:43.805Z,87.00
2023-07-26T01:12:10.820Z,86.90
2023-07-26T01:15:37.846Z,87.00
2023-07-26T01:19:00.153Z,86.90
2023-07-26T01:22:22.406Z,86.90
2023-07-26T01:25:44.657Z,86.90
2023-07-26T01:29:06.939Z,86.90
2023-07-26T01:32:32.742Z,86.90
2023-07-26T01:35:55.875Z,86.80
2023-07-26T01:39:19.270Z,86.60
2023-07-26T01:42:42.561Z,86.60
2023-07-26T01:46:04.796Z,86.60
2023-07-26T01:49:27.554Z,86.60
2023-07-26T01:52:49.890Z,86.60
2023-07-26T01:56:12.142Z,86.20
2023-07-26T01:59:34.359Z,86.00
2023-07-26T02:02:56.644Z,86.10
2023-07-26T02:06:18.936Z,86.00
2023-07-26T02:09:41.568Z,85.90
2023-07-26T02:13:03.935Z,86.20
2023-07-26T02:16:26.184Z,87.10
2023-07-26T02:19:48.478Z,86.50
2023-07-26T02:23:12.151Z,86.50
2023-07-26T02:26:34.477Z,86.40
2023-07-26T02:29:57.250Z,86.50
2023-07-26T02:33:19.535Z,86.50
2023-07-26T02:36:42.013Z,86.40
2023-07-26T02:40:04.567Z,86.40
2023-07-26T02:43:39.004Z,86.20
2023-07-26T02:47:03.310Z,85.90
2023-07-26T02:50:25.518Z,85.60
2023-07-26T02:53:47.754Z,85.60
2023-07-26T02:57:10.040Z,85.50
2023-07-26T03:00:32.206Z,85.70
2023-07-26T03:03:54.526Z,85.80
2023-07-26T03:07:17.356Z,86.00
2023-07-26T03:10:39.809Z,85.90
2023-07-26T03:14:02.559Z,85.90
2023-07-26T03:17:24.919Z,86.00
2023-07-26T03:20:47.913Z,86.10
2023-07-26T03:24:10.179Z,86.10
2023-07-26T03:27:32.484Z,86.20
2023-07-26T03:30:54.699Z,86.20
2023-07-26T03:34:17.256Z,86.50
2023-07-26T03:37:39.515Z,86.50
2023-07-26T03:41:02.166Z,86.60
2023-07-26T03:44:24.450Z,86.70
2023-07-26T03:47:46.769Z,86.50
2023-07-26T03:51:09.056Z,87.30
2023-07-26T03:54:31.502Z,86.40
2023-07-26T03:57:57.387Z,86.20
2023-07-26T04:01:19.616Z,86.30
2023-07-26T04:04:41.845Z,86.50
2023-07-26T04:08:04.245Z,86.70
2023-07-26T04:11:26.986Z,86.70
2023-07-26T04:14:49.360Z,87.00
2023-07-26T04:18:11.625Z,87.20
2023-07-26T04:21:33.864Z,87.50
2023-07-26T04:24:56.113Z,87.80
2023-07-26T04:28:18.377Z,87.80
2023-07-26T04:31:40.857Z,88.10
2023-07-26T04:35:03.137Z,88.30
2023-07-26T04:38:26.865Z,89.30
2023-07-26T04:41:49.086Z,88.70
2023-07-26T04:45:11.486Z,89.00
2023-07-26T04:48:33.794Z,89.10
2023-07-26T04:51:56.042Z,89.30
2023-07-26T04:55:18.239Z,89.60
2023-07-26T04:58:40.467Z,89.80
2023-07-26T05:02:02.744Z,90.00
2023-07-26T05:05:24.971Z,90.00
2023-07-26T05:08:48.624Z,90.00
2023-07-26T05:12:10.888Z,90.10
2023-07-26T05:15:33.248Z,90.20
2023-07-26T05:18:58.975Z,90.60
2023-07-26T05:22:21.202Z,90.90
2023-07-26T05:25:43.421Z,91.30
2023-07-26T05:29:05.669Z,91.50
2023-07-26T05:32:28.298Z,91.80
2023-07-26T05:35:50.571Z,91.90
2023-07-26T05:39:13.785Z,92.00
2023-07-26T05:42:37.028Z,92.10
2023-07-26T05:46:00.896Z,92.30
2023-07-26T05:49:23.169Z,92.40
2023-07-26T05:52:45.653Z,92.60
2023-07-26T05:56:08.547Z,92.60
2023-07-26T05:59:30.942Z,93.20
2023-07-26T06:02:53.179Z,92.90
2023-07-26T06:06:15.703Z,92.80
2023-07-26T06:09:38.005Z,92.80
2023-07-26T06:13:00.355Z,92.80
2023-07-26T06:16:22.791Z,92.70
2023-07-26T06:19:45.082Z,92.70
2023-07-26T06:23:08.575Z,92.80
2023-07-26T06:26:30.900Z,92.90
2023-07-26T06:29:53.140Z,93.00
2023-07-26T06:33:15.374Z,93.20
2023-07-26T06:36:37.600Z,93.10
2023-07-26T06:39:59.838Z,93.30
2023-07-26T06:43:22.079Z,93.20
2023-07-26T06:46:44.339Z,93.10
2023-07-26T06:50:07.073Z,93.00
2023-07-26T06:53:29.283Z,92.90
2023-07-26T06:56:51.812Z,92.60
2023-07-26T07:00:16.982Z,92.90
2023-07-26T07:03:39.200Z,92.40
2023-07-26T07:07:01.621Z,92.40
2023-07-26T07:13:47.253Z,92.00
2023-07-26T07:17:09.500Z,92.30
2023-07-26T07:20:31.724Z,92.20
2023-07-26T07:23:54.138Z,92.00
2023-07-26T07:27:16.386Z,92.30
2023-07-26T07:30:38.600Z,92.40
2023-07-26T07:34:00.871Z,92.50
2023-07-26T07:37:23.326Z,92.50
2023-07-26T07:40:45.582Z,92.20
2023-07-26T07:44:08.034Z,92.20
2023-07-26T07:47:30.316Z,92.20
2023-07-26T07:50:56.117Z,92.10
2023-07-26T07:54:18.435Z,91.40
2023-07-26T07:57:41.577Z,91.20
2023-07-26T08:01:03.919Z,91.30
2023-07-26T08:04:26.144Z,91.30
2023-07-26T08:07:51.450Z,91.60
2023-07-26T08:11:13.784Z,91.70
2023-07-26T08:14:36.308Z,91.50
2023-07-26T08:17:58.595Z,91.70
2023-07-26T08:21:20.803Z,91.70
2023-07-26T08:24:43.187Z,91.60
2023-07-26T08:28:06.061Z,91.70
2023-07-26T08:31:28.378Z,91.50
2023-07-26T08:34:50.635Z,91.30
2023-07-26T08:38:12.909Z,91.20
2023-07-26T08:41:36.235Z,91.30
2023-07-26T08:45:00.501Z,91.80
2023-07-26T08:48:23.277Z,92.60
2023-07-26T08:51:45.839Z,92.30
2023-07-26T08:55:10.200Z,91.90
2023-07-26T08:58:32.411Z,91.80
2023-07-26T09:02:03.760Z,91.00
2023-07-26T09:05:26.740Z,91.00
2023-07-26T09:08:49.347Z,91.10
2023-07-26T09:12:26.001Z,91.30
2023-07-26T09:15:48.257Z,91.20
2023-07-26T09:19:10.591Z,91.10
2023-07-26T09:22:32.852Z,91.10
2023-07-26T09:25:55.284Z,91.00
2023-07-26T09:29:18.058Z,91.00
2023-07-26T09:32:40.821Z,90.80
2023-07-26T09:36:03.128Z,90.80
2023-07-26T09:39:27.240Z,90.90
2023-07-26T09:42:50.457Z,91.30
2023-07-26T09:49:53.724Z,92.30
2023-07-26T09:53:35.259Z,91.20
2023-07-26T09:56:58.452Z,90.70
2023-07-26T10:00:22.887Z,90.90
2023-07-26T10:03:51.038Z,90.50
2023-07-26T10:07:14.684Z,91.30
2023-07-26T10:10:37.065Z,90.90
2023-07-26T10:14:00.987Z,91.10
2023-07-26T10:17:27.782Z,91.30
2023-07-26T10:20:51.690Z,91.00
2023-07-26T10:24:15.949Z,90.80
2023-07-26T10:27:39.649Z,90.70
2023-07-26T10:31:02.629Z,90.70
2023-07-26T10:34:26.197Z,90.60
2023-07-26T10:37:48.403Z,91.20
2023-07-26T10:41:29.129Z,90.90
2023-07-26T10:44:55.784Z,91.40
2023-07-26T10:48:27.492Z,93.00
2023-07-26T10:51:53.506Z,91.80
2023-07-26T10:55:24.987Z,91.60
2023-07-26T10:58:57.402Z,91.50
2023-07-26T11:03:01.749Z,92.50
2023-07-26T11:06:24.051Z,93.00
2023-07-26T11:09:46.331Z,92.00
2023-07-26T11:13:16.926Z,92.10
2023-07-26T11:16:40.101Z,92.70
2023-07-26T11:20:02.510Z,92.30
2023-07-26T11:23:28.287Z,92.20
2023-07-26T11:26:50.965Z,91.80
2023-07-26T11:30:20.907Z,91.80
2023-07-26T11:33:45.099Z,92.00
2023-07-26T11:37:08.990Z,92.80
2023-07-26T11:40:31.448Z,92.30
2023-07-26T11:43:55.439Z,93.40
2023-07-26T11:47:19.711Z,93.00
2023-07-26T11:50:42.804Z,92.20
2023-07-26T11:54:11.193Z,92.50
2023-07-26T11:57:34.411Z,92.20
2023-07-26T12:00:59.210Z,92.70
2023-07-26T12:04:22.029Z,92.40
2023-07-26T12:07:49.812Z,92.70
2023-07-26T12:11:12.235Z,92.40
2023-07-26T12:14:34.498Z,92.70
2023-07-26T12:17:57.668Z,93.30
2023-07-26T12:21:24.579Z,92.50
2023-07-26T12:24:54.751Z,92.60
2023-07-26T12:28:17.056Z,92.60
2023-07-26T12:31:39.687Z,92.60
2023-07-26T12:35:01.936Z,92.80
2023-07-26T12:38:24.628Z,92.80
2023-07-26T12:41:47.190Z,92.50
2023-07-26T12:45:09.883Z,92.90
2023-07-26T12:48:34.592Z,93.10
2023-07-26T12:51:56.912Z,93.50
2023-07-26T12:55:19.139Z,94.40
2023-07-26T12:58:56.556Z,95.10
2023-07-26T13:02:23.332Z,95.40
2023-07-26T13:05:45.595Z,95.80
2023-07-26T13:09:08.606Z,95.60
2023-07-26T13:12:30.825Z,95.30
2023-07-26T13:15:53.613Z,95.60
2023-07-26T13:19:15.856Z,95.70
2023-07-26T13:22:38.200Z,95.50
2023-07-26T13:26:00.460Z,95.60
2023-07-26T13:29:22.723Z,95.50
2023-07-26T13:32:45.039Z,95.10
2023-07-26T13:36:07.340Z,95.20
2023-07-26T13:39:30.324Z,95.00
2023-07-26T13:42:52.556Z,94.90
2023-07-26T13:49:39.917Z,94.50
2023-07-26T13:53:02.103Z,94.70
2023-07-26T13:56:24.348Z,95.00
2023-07-26T13:59:46.613Z,95.20
2023-07-26T14:03:10.817Z,95.30
2023-07-26T14:06:33.414Z,95.00
2023-07-26T14:09:55.823Z,95.30
2023-07-26T14:13:18.121Z,95.80
2023-07-26T14:16:40.461Z,94.90
2023-07-26T14:20:02.904Z,95.00
2023-07-26T14:23:25.254Z,94.90
2023-07-26T14:26:47.410Z,94.50
2023-07-26T14:30:10.274Z,94.50
2023-07-26T14:33:32.489Z,94.40
2023-07-26T14:36:54.739Z,94.40
2023-07-26T14:40:16.939Z,95.30
2023-07-26T14:43:39.241Z,95.20
2023-07-26T14:47:01.564Z,95.20
2023-07-26T14:50:23.826Z,95.30
2023-07-26T14:53:46.292Z,94.80
2023-07-26T14:57:12.065Z,94.90
2023-07-26T15:00:35.259Z,94.00
2023-07-26T15:04:01.238Z,94.10
2023-07-26T15:07:23.647Z,93.80
2023-07-26T15:10:45.974Z,93.80
2023-07-26T15:14:09.657Z,94.00
2023-07-26T15:17:32.153Z,94.10
2023-07-26T15:20:54.803Z,93.70
2023-07-26T15:24:17.113Z,94.00
2023-07-26T15:27:40.881Z,94.30
2023-07-26T15:31:03.851Z,93.70
2023-07-26T15:34:26.068Z,93.90
2023-07-26T15:37:48.389Z,93.80
2023-07-26T15:44:37.186Z,93.40
2023-07-26T15:48:00.053Z,92.10
2023-07-26T15:51:23.043Z,91.50
2023-07-26T15:54:45.236Z,91.70
2023-07-26T15:58:07.490Z,92.10
2023-07-26T16:01:29.817Z,92.40
2023-07-26T16:08:17.816Z,93.10
2023-07-26T16:18:31.172Z,92.90
2023-07-26T16:21:53.906Z,92.30
2023-07-26T16:25:16.666Z,91.90
2023-07-26T16:28:38.935Z,92.00
2023-07-26T16:32:01.281Z,92.10
2023-07-26T16:35:23.550Z,92.20
2023-07-26T16:38:45.783Z,92.00
2023-07-26T16:42:08.149Z,91.90
2023-07-26T16:45:30.382Z,92.20
2023-07-26T16:48:52.629Z,92.50
2023-07-26T16:52:14.942Z,91.80
2023-07-26T16:55:37.292Z,91.80
2023-07-26T16:58:59.508Z,91.90
2023-07-26T17:02:21.900Z,92.10
2023-07-26T17:05:44.255Z,92.30
2023-07-26T17:09:06.724Z,92.00
2023-07-26T17:12:29.162Z,92.10
2023-07-26T17:15:51.497Z,92.60
2023-07-26T17:19:13.797Z,92.90
2023-07-26T17:22:36.116Z,92.80
2023-07-26T17:25:58.288Z,93.20
2023-07-26T17:29:20.595Z,93.10
2023-07-26T17:32:42.919Z,93.30
2023-07-26T17:36:12.750Z,93.60
2023-07-26T17:39:35.018Z,93.40
2023-07-26T17:42:58.808Z,93.50
2023-07-26T17:46:21.805Z,93.50
2023-07-26T17:49:45.135Z,93.70
2023-07-26T17:53:07.487Z,93.60
2023-07-26T17:56:29.815Z,93.50
2023-07-26T17:59:52.207Z,93.80
2023-07-26T18:03:14.510Z,93.60
2023-07-26T18:06:37.058Z,93.70
2023-07-26T18:09:59.341Z,93.90
2023-07-26T18:13:22.070Z,93.80
2023-07-26T18:16:51.635Z,94.10
2023-07-26T18:20:14.336Z,94.30
2023-07-26T18:23:38.338Z,94.10
2023-07-26T18:27:00.713Z,93.70
2023-07-26T18:30:23.422Z,94.00
2023-07-26T18:33:46.322Z,94.20
2023-07-26T18:37:08.619Z,93.60
2023-07-26T18:40:30.933Z,94.20
2023-07-26T18:43:53.292Z,93.80
2023-07-26T18:47:15.636Z,93.80
2023-07-26T18:50:40.068Z,93.30
2023-07-26T18:54:03.512Z,93.20
2023-07-26T18:57:25.726Z,93.40
2023-07-26T19:00:48.234Z,93.40
2023-07-26T19:04:10.499Z,93.60
2023-07-26T19:07:32.768Z,94.00
2023-07-26T19:10:55.105Z,94.40
2023-07-26T19:14:17.393Z,94.20
2023-07-26T19:17:39.746Z,94.70
2023-07-26T19:21:03.567Z,94.90
2023-07-26T19:24:25.786Z,94.60
2023-07-26T19:27:48.026Z,94.70
2023-07-26T19:31:10.294Z,94.80
2023-07-26T19:34:32.594Z,94.90
2023-07-26T19:37:55.382Z,95.00
2023-07-26T19:41:19.244Z,95.20
2023-07-26T19:44:41.440Z,95.40
2023-07-26T19:48:03.862Z,95.20
2023-07-26T19:51:26.132Z,95.40
2023-07-26T19:54:48.363Z,95.20
2023-07-26T19:58:10.585Z,95.30
2023-07-26T20:01:32.913Z,95.10
2023-07-26T20:04:55.204Z,95.10
2023-07-26T20:08:17.706Z,95.20
2023-07-26T20:11:39.867Z,95.10
2023-07-26T20:15:02.147Z,95.30
2023-07-26T20:18:25.376Z,95.30
2023-07-26T20:21:47.704Z,95.30
2023-07-26T20:25:09.923Z,95.40
2023-07-26T20:28:32.112Z,95.00
2023-07-26T20:31:54.837Z,95.50
2023-07-26T20:35:17.153Z,95.50
2023-07-26T20:38:39.459Z,95.70
2023-07-26T20:42:01.649Z,95.70
2023-07-26T20:45:23.882Z,95.70
2023-07-26T20:48:46.219Z,95.60
2023-07-26T20:52:08.623Z,95.50
2023-07-26T20:55:30.871Z,95.50
2023-07-26T20:58:53.113Z,95.80
2023-07-26T21:02:15.346Z,94.90
2023-07-26T21:05:37.614Z,94.80
2023-07-26T21:08:59.874Z,94.90
2023-07-26T21:12:22.436Z,94.80
2023-07-26T21:15:45.437Z,94.80
2023-07-26T21:19:10.352Z,95.00
2023-07-26T21:22:33.354Z,95.00
2023-07-26T21:25:55.535Z,94.90
2023-07-26T21:29:17.812Z,95.10
2023-07-26T21:32:40.067Z,96.90
2023-07-26T21:36:02.441Z,98.00
2023-07-26T21:39:24.646Z,98.60
2023-07-26T21:42:46.885Z,98.60
2023-07-26T21:46:09.261Z,99.40
2023-07-26T21:49:31.531Z,99.40
2023-07-26T21:52:53.745Z,99.90
2023-07-26T21:56:16.203Z,99.50
2023-07-26T21:59:38.482Z,99.90
2023-07-26T22:03:00.708Z,99.90
2023-07-26T22:06:23.240Z,99.90
2023-07-26T22:09:46.850Z,99.90
2023-07-26T22:13:09.044Z,99.90
2023-07-26T22:16:31.637Z,99.90
2023-07-26T22:19:54.282Z,99.90
2023-07-26T22:23:16.530Z,99.90
2023-07-26T22:26:38.800Z,99.90
2023-07-26T22:30:01.490Z,99.90
2023-07-26T22:33:23.805Z,99.90
2023-07-26T22:36:46.011Z,99.90
2023-07-26T22:40:08.729Z,99.90
2023-07-26T22:43:31.011Z,98.40
2023-07-26T22:46:53.426Z,98.30
2023-07-26T22:50:16.054Z,97.80
2023-07-26T22:53:38.353Z,97.80
2023-07-26T22:57:00.614Z,97.70
2023-07-26T23:00:22.901Z,97.70
2023-07-26T23:03:45.176Z,97.60
2023-07-26T23:07:08.277Z,97.50
2023-07-26T23:10:30.524Z,97.50
2023-07-26T23:13:52.738Z,97.50
2023-07-26T23:17:15.073Z,97.90
2023-07-26T23:20:37.245Z,97.30
2023-07-26T23:23:59.706Z,97.30
2023-07-26T23:27:21.893Z,97.40
2023-07-26T23:30:52.454Z,97.20
2023-07-26T23:34:14.743Z,97.30
2023-07-26T23:37:36.913Z,97.20
2023-07-26T23:41:00.921Z,97.40
2023-07-26T23:44:23.263Z,97.50
2023-07-26T23:47:45.547Z,97.30
2023-07-26T23:51:07.822Z,97.40
2023-07-26T23:54:30.022Z,97.20
2023-07-26T23:57:52.403Z,97.20
